Time,TemperatureF,DewpointF,PressureIn,WindDirection,WindDirectionDegrees,WindSpeedMPH,WindSpeedGustMPH,Humidity,HourlyPrecipIn,Conditions,Clouds,dailyrainin,SolarRadiationWatts/m^2,SoftwareType,DateUTC
2013-06-03 00:12:00,45.0,38.0,-100.00,NNW,345,6.0,12.0,75,0.00,,,0.00,1.000000,,2013-06-03 08:12:00,
2013-06-03 00:22:00,45.0,38.0,-100.00,NNW,345,6.0,12.0,75,0.00,,,0.00,1.000000,,2013-06-03 08:22:00,
2013-06-03 00:32:00,45.0,38.0,-100.00,NNW,345,6.0,12.0,75,0.00,,,0.00,1.000000,,2013-06-03 08:32:00,
2013-06-03 00:42:00,45.0,38.0,-100.00,NNW,345,6.0,12.0,75,0.00,,,0.00,1.000000,,2013-06-03 08:42:00,
2013-06-03 00:51:00,45.0,38.0,-100.00,NNW,345,6.0,12.0,75,0.00,,,0.00,1.000000,,2013-06-03 08:51:00,
2013-06-03 01:12:00,45.0,38.0,-100.00,North,7,6.0,11.0,75,0.00,,,0.00,0.000000,,2013-06-03 09:12:00,
2013-06-03 01:22:00,45.0,38.0,-100.00,North,7,6.0,11.0,75,0.00,,,0.00,0.000000,,2013-06-03 09:22:00,
2013-06-03 01:33:00,45.0,38.0,-100.00,North,7,6.0,11.0,75,0.00,,,0.00,0.000000,,2013-06-03 09:33:00,
2013-06-03 01:42:00,45.0,38.0,-100.00,North,7,6.0,11.0,75,0.00,,,0.00,0.000000,,2013-06-03 09:42:00,
2013-06-03 01:52:00,45.0,38.0,-100.00,North,7,6.0,11.0,75,0.00,,,0.00,0.000000,,2013-06-03 09:52:00,
2013-06-03 02:12:00,45.0,37.0,-100.00,North,3,9.0,14.0,72,0.00,,,0.00,0.000000,,2013-06-03 10:12:00,
2013-06-03 02:22:00,45.0,37.0,-100.00,North,3,9.0,14.0,72,0.00,,,0.00,0.000000,,2013-06-03 10:22:00,
2013-06-03 02:33:00,45.0,37.0,-100.00,North,3,9.0,14.0,72,0.00,,,0.00,0.000000,,2013-06-03 10:33:00,
2013-06-03 02:42:00,45.0,37.0,-100.00,North,3,9.0,14.0,72,0.00,,,0.00,0.000000,,2013-06-03 10:42:00,
2013-06-03 02:52:00,45.0,37.0,-100.00,North,3,9.0,14.0,72,0.00,,,0.00,0.000000,,2013-06-03 10:52:00,
2013-06-03 03:12:00,45.0,35.0,-100.00,North,1,8.0,15.0,69,0.00,,,0.00,0.000000,,2013-06-03 11:12:00,
2013-06-03 03:22:00,45.0,35.0,-100.00,North,1,8.0,15.0,69,0.00,,,0.00,0.000000,,2013-06-03 11:22:00,
2013-06-03 03:32:00,45.0,35.0,-100.00,North,1,8.0,15.0,69,0.00,,,0.00,0.000000,,2013-06-03 11:32:00,
2013-06-03 03:42:00,45.0,35.0,-100.00,North,1,8.0,15.0,69,0.00,,,0.00,0.000000,,2013-06-03 11:42:00,
2013-06-03 03:52:00,45.0,35.0,-100.00,North,1,8.0,15.0,69,0.00,,,0.00,0.000000,,2013-06-03 11:52:00,
2013-06-03 04:12:00,45.0,35.0,-100.00,North,0,6.0,14.0,69,0.00,,,0.00,0.000000,,2013-06-03 12:12:00,
2013-06-03 04:22:00,45.0,35.0,-100.00,North,0,6.0,14.0,69,0.00,,,0.00,0.000000,,2013-06-03 12:22:00,
2013-06-03 04:32:00,45.0,35.0,-100.00,North,0,6.0,14.0,69,0.00,,,0.00,0.000000,,2013-06-03 12:32:00,
2013-06-03 04:42:00,45.0,35.0,-100.00,North,0,6.0,14.0,69,0.00,,,0.00,0.000000,,2013-06-03 12:42:00,
2013-06-03 04:52:00,45.0,35.0,-100.00,North,0,6.0,14.0,69,0.00,,,0.00,0.000000,,2013-06-03 12:52:00,
2013-06-03 05:12:00,44.0,34.0,-100.00,North,351,5.0,16.0,69,0.00,,,0.00,0.000000,,2013-06-03 13:12:00,
2013-06-03 05:22:00,44.0,34.0,-100.00,North,351,5.0,16.0,69,0.00,,,0.00,0.000000,,2013-06-03 13:22:00,
2013-06-03 05:32:00,44.0,34.0,-100.00,North,351,5.0,16.0,69,0.00,,,0.00,0.000000,,2013-06-03 13:32:00,
2013-06-03 05:42:00,44.0,34.0,-100.00,North,351,5.0,16.0,69,0.00,,,0.00,0.000000,,2013-06-03 13:42:00,
2013-06-03 05:52:00,44.0,34.0,-100.00,North,351,5.0,16.0,69,0.00,,,0.00,0.000000,,2013-06-03 13:52:00,
2013-06-03 06:12:00,44.0,36.0,-100.00,North,357,4.0,13.0,73,0.00,,,0.00,4.000000,,2013-06-03 14:12:00,
2013-06-03 06:22:00,44.0,36.0,-100.00,North,357,4.0,13.0,73,0.00,,,0.00,4.000000,,2013-06-03 14:22:00,
2013-06-03 06:32:00,44.0,36.0,-100.00,North,357,4.0,13.0,73,0.00,,,0.00,4.000000,,2013-06-03 14:32:00,
2013-06-03 06:42:00,44.0,36.0,-100.00,North,357,4.0,13.0,73,0.00,,,0.00,4.000000,,2013-06-03 14:42:00,
2013-06-03 06:52:00,44.0,36.0,-100.00,North,357,4.0,13.0,73,0.00,,,0.00,4.000000,,2013-06-03 14:52:00,
2013-06-03 07:12:00,45.0,36.0,-100.00,NNE,18,5.0,11.0,70,0.00,,,0.00,20.000000,,2013-06-03 15:12:00,
2013-06-03 07:22:00,45.0,36.0,-100.00,NNE,18,5.0,11.0,70,0.00,,,0.00,20.000000,,2013-06-03 15:22:00,
2013-06-03 07:33:00,45.0,36.0,-100.00,NNE,18,5.0,11.0,70,0.00,,,0.00,20.000000,,2013-06-03 15:33:00,
2013-06-03 07:43:00,45.0,36.0,-100.00,NNE,18,5.0,11.0,70,0.00,,,0.00,20.000000,,2013-06-03 15:43:00,
2013-06-03 07:53:00,45.0,36.0,-100.00,NNE,18,5.0,11.0,70,0.00,,,0.00,20.000000,,2013-06-03 15:53:00,
2013-06-03 08:12:00,45.0,35.0,-100.00,NNE,12,4.0,10.0,67,0.00,,,-99.99,42.000000,,2013-06-03 16:12:00,
2013-06-03 08:23:00,45.0,35.0,-100.00,NNE,12,4.0,10.0,67,0.00,,,-99.99,42.000000,,2013-06-03 16:23:00,
2013-06-03 08:33:00,45.0,35.0,-100.00,NNE,12,4.0,10.0,67,0.00,,,-99.99,42.000000,,2013-06-03 16:33:00,
2013-06-03 08:42:00,45.0,35.0,-100.00,NNE,12,4.0,10.0,67,0.00,,,-99.99,42.000000,,2013-06-03 16:42:00,
2013-06-03 08:53:00,45.0,35.0,-100.00,NNE,12,4.0,10.0,67,0.00,,,-99.99,42.000000,,2013-06-03 16:53:00,
2013-06-03 09:12:00,46.0,36.0,-100.00,North,355,5.0,8.0,69,0.00,,,0.00,56.000000,,2013-06-03 17:12:00,
2013-06-03 09:22:00,46.0,36.0,-100.00,North,355,5.0,8.0,69,0.00,,,0.00,56.000000,,2013-06-03 17:22:00,
2013-06-03 09:33:00,46.0,36.0,-100.00,North,355,5.0,8.0,69,0.00,,,0.00,56.000000,,2013-06-03 17:33:00,
2013-06-03 09:42:00,46.0,36.0,-100.00,North,355,5.0,8.0,69,0.00,,,0.00,56.000000,,2013-06-03 17:42:00,
2013-06-03 09:52:00,46.0,36.0,-100.00,North,355,5.0,8.0,69,0.00,,,0.00,56.000000,,2013-06-03 17:52:00,
2013-06-03 10:12:00,46.0,37.0,-100.00,North,1,5.0,9.0,72,0.00,,,0.00,79.000000,,2013-06-03 18:12:00,
2013-06-03 10:22:00,46.0,37.0,-100.00,North,1,5.0,9.0,72,0.00,,,0.00,79.000000,,2013-06-03 18:22:00,
2013-06-03 10:32:00,46.0,37.0,-100.00,North,1,5.0,9.0,72,0.00,,,0.00,79.000000,,2013-06-03 18:32:00,
2013-06-03 10:42:00,46.0,37.0,-100.00,North,1,5.0,9.0,72,0.00,,,0.00,79.000000,,2013-06-03 18:42:00,
2013-06-03 10:52:00,46.0,37.0,-100.00,North,1,5.0,9.0,72,0.00,,,0.00,79.000000,,2013-06-03 18:52:00,
2013-06-03 11:12:00,48.0,36.0,-100.00,NNE,24,5.0,10.0,62,0.00,,,0.00,156.000000,,2013-06-03 19:12:00,
2013-06-03 11:22:00,48.0,36.0,-100.00,NNE,24,5.0,10.0,62,0.00,,,0.00,156.000000,,2013-06-03 19:22:00,
2013-06-03 11:32:00,48.0,36.0,-100.00,NNE,24,5.0,10.0,62,0.00,,,0.00,156.000000,,2013-06-03 19:32:00,
2013-06-03 11:42:00,48.0,36.0,-100.00,NNE,24,5.0,10.0,62,0.00,,,0.00,156.000000,,2013-06-03 19:42:00,
2013-06-03 11:52:00,48.0,36.0,-100.00,NNE,24,5.0,10.0,62,0.00,,,0.00,156.000000,,2013-06-03 19:52:00,
2013-06-03 12:12:00,48.0,35.0,-100.00,NNE,33,5.0,13.0,61,0.00,,,0.00,148.000000,,2013-06-03 20:12:00,
2013-06-03 12:22:00,48.0,35.0,-100.00,NNE,33,5.0,13.0,61,0.00,,,0.00,148.000000,,2013-06-03 20:22:00,
2013-06-03 12:32:00,48.0,35.0,-100.00,NNE,33,5.0,13.0,61,0.00,,,0.00,148.000000,,2013-06-03 20:32:00,
2013-06-03 12:42:00,48.0,35.0,-100.00,NNE,33,5.0,13.0,61,0.00,,,0.00,148.000000,,2013-06-03 20:42:00,
2013-06-03 12:52:00,48.0,35.0,-100.00,NNE,33,5.0,13.0,61,0.00,,,0.00,148.000000,,2013-06-03 20:52:00,
2013-06-03 13:12:00,50.0,37.0,-100.00,NNE,12,7.0,12.0,60,0.00,,,0.00,212.000000,,2013-06-03 21:12:00,
2013-06-03 13:22:00,50.0,37.0,-100.00,NNE,12,7.0,12.0,60,0.00,,,0.00,212.000000,,2013-06-03 21:22:00,
2013-06-03 13:33:00,50.0,37.0,-100.00,NNE,12,7.0,12.0,60,0.00,,,0.00,212.000000,,2013-06-03 21:33:00,
2013-06-03 13:43:00,50.0,37.0,-100.00,NNE,12,7.0,12.0,60,0.00,,,0.00,212.000000,,2013-06-03 21:43:00,
2013-06-03 13:52:00,50.0,37.0,-100.00,NNE,12,7.0,12.0,60,0.00,,,0.00,212.000000,,2013-06-03 21:52:00,
2013-06-03 14:12:00,51.0,35.0,-100.00,NE,41,8.0,16.0,54,0.00,,,0.00,333.000000,,2013-06-03 22:12:00,
2013-06-03 14:22:00,51.0,35.0,-100.00,NE,41,8.0,16.0,54,0.00,,,0.00,333.000000,,2013-06-03 22:22:00,
2013-06-03 14:32:00,51.0,35.0,-100.00,NE,41,8.0,16.0,54,0.00,,,0.00,333.000000,,2013-06-03 22:32:00,
2013-06-03 14:42:00,51.0,35.0,-100.00,NE,41,8.0,16.0,54,0.00,,,0.00,333.000000,,2013-06-03 22:42:00,
2013-06-03 14:52:00,51.0,35.0,-100.00,NE,41,8.0,16.0,54,0.00,,,0.00,333.000000,,2013-06-03 22:52:00,
2013-06-03 15:12:00,51.0,36.0,-100.00,NNE,27,6.0,13.0,57,0.00,,,0.00,235.000000,,2013-06-03 23:12:00,
2013-06-03 15:22:00,51.0,36.0,-100.00,NNE,27,6.0,13.0,57,0.00,,,0.00,235.000000,,2013-06-03 23:22:00,
2013-06-03 15:32:00,51.0,36.0,-100.00,NNE,27,6.0,13.0,57,0.00,,,0.00,235.000000,,2013-06-03 23:32:00,
2013-06-03 15:42:00,51.0,36.0,-100.00,NNE,27,6.0,13.0,57,0.00,,,0.00,235.000000,,2013-06-03 23:42:00,
2013-06-03 15:52:00,51.0,36.0,-100.00,NNE,27,6.0,13.0,57,0.00,,,0.00,235.000000,,2013-06-03 23:52:00,
2013-06-03 16:12:00,50.0,35.0,-100.00,NE,43,5.0,12.0,57,0.00,,,0.00,255.000000,,2013-06-04 00:12:00,
2013-06-03 16:22:00,50.0,35.0,-100.00,NE,43,5.0,12.0,57,0.00,,,0.00,255.000000,,2013-06-04 00:22:00,
2013-06-03 16:32:00,50.0,35.0,-100.00,NE,43,5.0,12.0,57,0.00,,,0.00,255.000000,,2013-06-04 00:32:00,
2013-06-03 16:42:00,50.0,35.0,-100.00,NE,43,5.0,12.0,57,0.00,,,0.00,255.000000,,2013-06-04 00:42:00,
2013-06-03 16:52:00,50.0,35.0,-100.00,NE,43,5.0,12.0,57,0.00,,,0.00,255.000000,,2013-06-04 00:52:00,
2013-06-03 17:12:00,52.0,35.0,-100.00,ENE,65,4.0,11.0,52,0.00,,,0.00,310.000000,,2013-06-04 01:12:00,
2013-06-03 17:22:00,52.0,35.0,-100.00,ENE,65,4.0,11.0,52,0.00,,,0.00,310.000000,,2013-06-04 01:22:00,
2013-06-03 17:32:00,52.0,35.0,-100.00,ENE,65,4.0,11.0,52,0.00,,,0.00,310.000000,,2013-06-04 01:32:00,
2013-06-03 17:42:00,52.0,35.0,-100.00,ENE,65,4.0,11.0,52,0.00,,,0.00,310.000000,,2013-06-04 01:42:00,
2013-06-03 17:52:00,52.0,35.0,-100.00,ENE,65,4.0,11.0,52,0.00,,,0.00,310.000000,,2013-06-04 01:52:00,
2013-06-03 18:12:00,51.0,35.0,-100.00,NE,37,6.0,12.0,54,0.00,,,0.00,236.000000,,2013-06-04 02:12:00,
2013-06-03 18:22:00,51.0,35.0,-100.00,NE,37,6.0,12.0,54,0.00,,,0.00,236.000000,,2013-06-04 02:22:00,
2013-06-03 18:32:00,51.0,35.0,-100.00,NE,37,6.0,12.0,54,0.00,,,0.00,236.000000,,2013-06-04 02:32:00,
2013-06-03 18:42:00,51.0,35.0,-100.00,NE,37,6.0,12.0,54,0.00,,,0.00,236.000000,,2013-06-04 02:42:00,
2013-06-03 18:52:00,51.0,35.0,-100.00,NE,37,6.0,12.0,54,0.00,,,0.00,236.000000,,2013-06-04 02:52:00,
2013-06-03 19:12:00,50.0,33.0,-100.00,NE,35,7.0,14.0,52,0.00,,,0.00,237.000000,,2013-06-04 03:12:00,
2013-06-03 19:22:00,50.0,33.0,-100.00,NE,35,7.0,14.0,52,0.00,,,0.00,237.000000,,2013-06-04 03:22:00,
2013-06-03 19:32:00,50.0,33.0,-100.00,NE,35,7.0,14.0,52,0.00,,,0.00,237.000000,,2013-06-04 03:32:00,
2013-06-03 19:43:00,50.0,33.0,-100.00,NE,35,7.0,14.0,52,0.00,,,0.00,237.000000,,2013-06-04 03:43:00,
2013-06-03 19:53:00,50.0,33.0,-100.00,NE,35,7.0,14.0,52,0.00,,,0.00,237.000000,,2013-06-04 03:53:00,
2013-06-03 20:13:00,49.0,34.0,-100.00,NNE,30,6.0,11.0,55,0.00,,,0.00,150.000000,,2013-06-04 04:13:00,
2013-06-03 20:23:00,49.0,34.0,-100.00,NNE,30,6.0,11.0,55,0.00,,,0.00,150.000000,,2013-06-04 04:23:00,
2013-06-03 20:33:00,49.0,34.0,-100.00,NNE,30,6.0,11.0,55,0.00,,,0.00,150.000000,,2013-06-04 04:33:00,
2013-06-03 20:42:00,49.0,34.0,-100.00,NNE,30,6.0,11.0,55,0.00,,,0.00,150.000000,,2013-06-04 04:42:00,
2013-06-03 20:52:00,49.0,34.0,-100.00,NNE,30,6.0,11.0,55,0.00,,,0.00,150.000000,,2013-06-04 04:52:00,
2013-06-03 21:12:00,49.0,34.0,-100.00,NNE,22,4.0,9.0,57,0.00,,,0.00,103.000000,,2013-06-04 05:12:00,
2013-06-03 21:22:00,49.0,34.0,-100.00,NNE,22,4.0,9.0,57,0.00,,,0.00,103.000000,,2013-06-04 05:22:00,
2013-06-03 21:32:00,49.0,34.0,-100.00,NNE,22,4.0,9.0,57,0.00,,,0.00,103.000000,,2013-06-04 05:32:00,
2013-06-03 21:42:00,49.0,34.0,-100.00,NNE,22,4.0,9.0,57,0.00,,,0.00,103.000000,,2013-06-04 05:42:00,
2013-06-03 21:52:00,49.0,34.0,-100.00,NNE,22,4.0,9.0,57,0.00,,,0.00,103.000000,,2013-06-04 05:52:00,
2013-06-03 22:12:00,48.0,34.0,-100.00,NE,34,4.0,9.0,59,0.00,,,0.00,45.000000,,2013-06-04 06:12:00,
2013-06-03 22:22:00,48.0,34.0,-100.00,NE,34,4.0,9.0,59,0.00,,,0.00,45.000000,,2013-06-04 06:22:00,
2013-06-03 22:32:00,48.0,34.0,-100.00,NE,34,4.0,9.0,59,0.00,,,0.00,45.000000,,2013-06-04 06:32:00,
2013-06-03 22:42:00,48.0,34.0,-100.00,NE,34,4.0,9.0,59,0.00,,,0.00,45.000000,,2013-06-04 06:42:00,
2013-06-03 22:52:00,48.0,34.0,-100.00,NE,34,4.0,9.0,59,0.00,,,0.00,45.000000,,2013-06-04 06:52:00,
2013-06-03 23:12:00,46.0,35.0,-100.00,North,7,5.0,9.0,66,0.00,,,0.00,13.000000,,2013-06-04 07:12:00,
2013-06-03 23:22:00,46.0,35.0,-100.00,North,7,5.0,9.0,66,0.00,,,0.00,13.000000,,2013-06-04 07:22:00,
2013-06-03 23:32:00,46.0,35.0,-100.00,North,7,5.0,9.0,66,0.00,,,0.00,13.000000,,2013-06-04 07:32:00,
2013-06-03 23:42:00,46.0,35.0,-100.00,North,7,5.0,9.0,66,0.00,,,0.00,13.000000,,2013-06-04 07:42:00,
2013-06-03 23:52:00,46.0,35.0,-100.00,North,7,5.0,9.0,66,0.00,,,0.00,13.000000,,2013-06-04 07:52:00,